createdAt,value
2017-07-24T00:01:33.458Z,45.53
2017-07-24T00:04:03.643Z,45.90
2017-07-24T00:06:33.655Z,45.13
2017-07-24T00:09:03.670Z,44.10
2017-07-24T00:11:33.711Z,39.27
2017-07-24T00:14:08.623Z,45.03
2017-07-24T00:16:39.520Z,41.90
2017-07-24T00:19:14.817Z,36.00
2017-07-24T00:21:53.631Z,33.10
2017-07-24T00:24:24.552Z,36.83
2017-07-24T00:26:54.875Z,39.10
2017-07-24T00:29:24.897Z,42.23
2017-07-24T00:31:55.320Z,42.67
2017-07-24T00:34:26.259Z,47.33
2017-07-24T00:36:56.283Z,34.73
2017-07-24T00:39:26.386Z,50.07
2017-07-24T00:41:56.531Z,40.70
2017-07-24T00:44:26.624Z,38.80
2017-07-24T00:46:56.742Z,51.80
2017-07-24T00:49:26.859Z,46.17
2017-07-24T00:51:57.080Z,86.93
2017-07-24T00:54:27.197Z,91.07
2017-07-24T00:56:57.316Z,81.17
2017-07-24T00:59:27.434Z,98.13
2017-07-24T01:01:57.553Z,94.67
2017-07-24T01:04:27.671Z,93.80
2017-07-24T01:06:57.789Z,66.97
2017-07-24T01:09:27.909Z,85.53
2017-07-24T01:11:58.029Z,64.93
2017-07-24T01:14:28.146Z,66.73
2017-07-24T01:16:58.368Z,72.30
2017-07-24T01:19:31.782Z,73.13
2017-07-24T01:22:07.962Z,61.40
2017-07-24T01:24:40.191Z,61.63
2017-07-24T01:27:11.714Z,87.67
2017-07-24T01:29:42.677Z,65.57
2017-07-24T01:32:12.896Z,66.57
2017-07-24T01:34:43.017Z,75.77
2017-07-24T01:37:13.236Z,74.00
2017-07-24T01:39:43.356Z,76.80
2017-07-24T01:42:49.111Z,74.87
2017-07-24T01:45:19.228Z,76.17
2017-07-24T01:47:49.450Z,81.50
2017-07-24T01:50:19.570Z,69.33
2017-07-24T01:52:49.785Z,76.77
2017-07-24T01:55:19.910Z,71.57
2017-07-24T01:57:54.936Z,76.77
2017-07-24T02:00:25.259Z,78.00
2017-07-24T02:02:55.199Z,71.77
2017-07-24T02:05:25.301Z,67.07
2017-07-24T02:07:55.224Z,68.77
2017-07-24T02:10:25.240Z,72.23
2017-07-24T02:12:55.341Z,61.37
2017-07-24T02:15:25.353Z,68.17
2017-07-24T02:17:55.574Z,59.37
2017-07-24T02:20:25.692Z,68.33
2017-07-24T02:22:55.913Z,68.20
2017-07-24T02:25:28.407Z,74.33
2017-07-24T02:27:59.166Z,55.90
2017-07-24T02:30:33.048Z,70.17
2017-07-24T02:33:04.801Z,75.73
2017-07-24T02:35:37.495Z,56.30
2017-07-24T02:38:08.410Z,58.40
2017-07-24T02:40:41.655Z,57.40
2017-07-24T02:43:12.454Z,60.43
2017-07-24T02:45:42.544Z,53.23
2017-07-24T02:48:12.763Z,61.17
2017-07-24T02:50:42.882Z,60.60
2017-07-24T02:53:13.001Z,60.93
2017-07-24T02:55:43.118Z,59.10
2017-07-24T02:58:13.337Z,60.70
2017-07-24T03:00:46.843Z,52.07
2017-07-24T03:03:44.301Z,48.17
2017-07-24T03:06:15.170Z,44.10
2017-07-24T03:08:46.211Z,64.07
2017-07-24T03:11:19.793Z,52.83
2017-07-24T03:13:52.238Z,50.13
2017-07-24T03:16:22.785Z,48.13
2017-07-24T03:18:53.559Z,52.57
2017-07-24T03:21:23.727Z,45.70
2017-07-24T03:23:54.048Z,62.07
2017-07-24T03:26:25.999Z,51.03
2017-07-24T03:28:59.055Z,56.83
2017-07-24T03:31:39.729Z,45.10
2017-07-24T03:34:11.312Z,55.83
2017-07-24T03:36:41.434Z,45.43
2017-07-24T03:39:11.549Z,38.63
2017-07-24T03:41:41.467Z,51.10
2017-07-24T03:44:11.471Z,37.67
2017-07-24T03:46:41.393Z,39.87
2017-07-24T03:49:11.614Z,47.87
2017-07-24T03:51:41.732Z,38.17
2017-07-24T03:54:11.953Z,45.43
2017-07-24T03:56:41.967Z,57.73
2017-07-24T03:59:12.088Z,39.77
2017-07-24T04:01:42.100Z,41.30
2017-07-24T04:04:12.219Z,39.60
2017-07-24T04:06:42.138Z,36.37
2017-07-24T04:09:12.358Z,41.43
2017-07-24T04:11:42.370Z,45.23
2017-07-24T04:14:14.001Z,34.97
2017-07-24T04:16:44.142Z,47.43
2017-07-24T04:19:15.044Z,46.93
2017-07-24T04:21:45.401Z,41.83
2017-07-24T04:24:16.960Z,47.17
2017-07-24T04:26:49.357Z,47.53
2017-07-24T04:29:19.342Z,55.90
2017-07-24T04:31:49.460Z,33.07
2017-07-24T04:34:19.480Z,47.73
2017-07-24T04:36:49.702Z,37.83
2017-07-24T04:39:19.715Z,38.40
2017-07-24T04:41:49.629Z,39.00
2017-07-24T04:44:19.752Z,36.80
2017-07-24T04:46:49.864Z,44.87
2017-07-24T04:49:19.879Z,52.23
2017-07-24T04:51:49.793Z,33.50
2017-07-24T04:54:19.910Z,38.10
2017-07-24T04:56:49.927Z,42.17
2017-07-24T04:59:20.148Z,31.50
2017-07-24T05:01:50.162Z,42.43
2017-07-24T05:04:20.386Z,42.20
2017-07-24T05:06:50.501Z,34.90
2017-07-24T05:09:20.721Z,45.27
2017-07-24T05:11:50.841Z,35.10
2017-07-24T05:14:20.958Z,44.23
2017-07-24T05:16:50.975Z,41.87
2017-07-24T05:19:21.098Z,46.40
2017-07-24T05:21:51.212Z,31.17
2017-07-24T05:24:21.438Z,38.23
2017-07-24T05:26:51.420Z,33.37
2017-07-24T05:29:22.385Z,42.07
2017-07-24T05:31:53.946Z,39.40
2017-07-24T05:34:25.199Z,35.37
2017-07-24T05:36:58.545Z,33.07
2017-07-24T05:39:31.412Z,35.17
2017-07-24T05:42:05.785Z,32.23
2017-07-24T05:44:36.100Z,28.63
2017-07-24T05:47:06.320Z,43.03
2017-07-24T05:49:36.541Z,34.67
2017-07-24T05:52:06.441Z,27.73
2017-07-24T05:54:36.479Z,32.97
2017-07-24T05:57:06.589Z,37.43
2017-07-24T05:59:36.710Z,31.67
2017-07-24T06:02:06.724Z,36.70
2017-07-24T06:04:36.944Z,45.90
2017-07-24T06:07:06.910Z,40.07
2017-07-24T06:09:37.079Z,39.97
2017-07-24T06:12:07.092Z,32.03
2017-07-24T06:14:37.213Z,38.43
2017-07-24T06:17:12.249Z,33.63
2017-07-24T06:19:42.362Z,31.83
2017-07-24T06:22:13.872Z,38.70
2017-07-24T06:24:45.695Z,38.13
2017-07-24T06:27:18.231Z,40.60
2017-07-24T06:29:59.985Z,37.47
2017-07-24T06:32:30.160Z,42.37
2017-07-24T06:35:00.955Z,40.00
2017-07-24T06:37:31.111Z,38.70
2017-07-24T06:40:02.447Z,28.97
2017-07-24T06:42:34.110Z,47.27
2017-07-24T06:45:04.232Z,35.73
2017-07-24T06:47:34.352Z,39.80
2017-07-24T06:50:04.471Z,32.30
2017-07-24T06:52:34.585Z,48.53
2017-07-24T06:55:04.909Z,37.17
2017-07-24T06:57:35.131Z,32.97
2017-07-24T07:00:05.249Z,39.93
2017-07-24T07:02:35.914Z,29.97
2017-07-24T07:05:06.855Z,30.97
2017-07-24T07:07:38.060Z,33.53
2017-07-24T07:10:09.086Z,38.00
2017-07-24T07:12:39.935Z,29.80
2017-07-24T07:15:10.055Z,42.27
2017-07-24T07:17:40.273Z,24.13
2017-07-24T07:20:10.392Z,41.40
2017-07-24T07:22:40.615Z,34.80
2017-07-24T07:25:15.694Z,53.13
2017-07-24T07:27:46.335Z,34.77
2017-07-24T07:30:17.437Z,38.30
2017-07-24T07:32:49.590Z,41.90
2017-07-24T07:35:19.704Z,35.63
2017-07-24T07:37:49.719Z,28.07
2017-07-24T07:40:20.548Z,39.53
2017-07-24T07:42:50.673Z,40.43
2017-07-24T07:45:22.394Z,35.83
2017-07-24T07:47:58.535Z,32.97
2017-07-24T07:50:30.234Z,38.30
2017-07-24T07:53:03.866Z,44.87
2017-07-24T07:55:34.943Z,40.87
2017-07-24T07:58:06.484Z,34.73
2017-07-24T08:00:44.227Z,43.13
2017-07-24T08:03:16.622Z,38.63
2017-07-24T08:05:47.551Z,39.20
2017-07-24T08:08:18.240Z,44.23
2017-07-24T08:10:50.041Z,34.80
2017-07-24T08:13:25.894Z,37.30
2017-07-24T08:15:56.106Z,41.10
2017-07-24T08:18:26.335Z,38.83
2017-07-24T08:20:56.448Z,43.77
2017-07-24T08:23:26.666Z,45.77
2017-07-24T08:25:56.814Z,49.77
2017-07-24T08:28:27.209Z,35.20
2017-07-24T08:30:57.330Z,30.53
2017-07-24T08:33:27.551Z,33.63
2017-07-24T08:35:57.666Z,32.73
2017-07-24T08:38:27.890Z,44.07
2017-07-24T08:40:57.902Z,52.23
2017-07-24T08:43:28.022Z,54.70
2017-07-24T08:45:58.144Z,43.03
2017-07-24T08:48:29.377Z,33.87
2017-07-24T08:51:00.292Z,34.50
2017-07-24T08:53:31.849Z,42.53
2017-07-24T08:56:03.866Z,39.47
2017-07-24T08:58:34.594Z,32.80
2017-07-24T09:01:05.885Z,36.87
2017-07-24T09:03:38.446Z,33.90
2017-07-24T09:06:09.348Z,32.90
2017-07-24T09:08:39.444Z,39.23
2017-07-24T09:11:10.398Z,36.97
2017-07-24T09:13:41.732Z,42.90
2017-07-24T09:16:12.880Z,42.10
2017-07-24T09:18:43.670Z,32.00
2017-07-24T09:21:14.575Z,35.90
2017-07-24T09:23:47.651Z,33.13
2017-07-24T09:26:18.874Z,33.23
2017-07-24T09:28:51.136Z,28.53
2017-07-24T09:31:21.261Z,41.10
2017-07-24T09:33:51.377Z,30.03
2017-07-24T09:36:21.498Z,34.40
2017-07-24T09:38:51.619Z,29.80
2017-07-24T09:41:21.737Z,32.50
2017-07-24T09:43:51.853Z,36.80
2017-07-24T09:46:21.970Z,30.50
2017-07-24T09:48:52.191Z,34.20
2017-07-24T09:51:22.206Z,32.67
2017-07-24T09:53:52.325Z,38.27
2017-07-24T09:56:22.442Z,29.33
2017-07-24T09:58:52.669Z,31.80
2017-07-24T10:01:22.783Z,39.03
2017-07-24T10:03:53.004Z,33.00
2017-07-24T10:06:23.121Z,34.10
2017-07-24T10:09:08.803Z,28.13
2017-07-24T10:11:38.758Z,34.20
2017-07-24T10:14:08.943Z,27.20
2017-07-24T10:16:39.061Z,33.73
2017-07-24T10:19:09.285Z,30.93
2017-07-24T10:21:39.401Z,33.83
2017-07-24T10:24:09.515Z,30.93
2017-07-24T10:26:39.838Z,31.67
2017-07-24T10:29:09.960Z,23.40
2017-07-24T10:31:40.075Z,33.07
2017-07-24T10:34:10.295Z,25.50
2017-07-24T10:36:40.416Z,21.17
2017-07-24T10:39:34.802Z,29.77
2017-07-24T10:42:04.917Z,28.20
2017-07-24T10:44:35.037Z,30.33
2017-07-24T10:47:05.053Z,30.00
2017-07-24T10:49:36.959Z,32.90
2017-07-24T10:52:10.945Z,21.33
2017-07-24T10:55:15.128Z,34.53
2017-07-24T10:57:46.957Z,27.73
2017-07-24T11:00:17.898Z,26.70
2017-07-24T11:02:48.833Z,26.60
2017-07-24T11:05:23.006Z,21.57
2017-07-24T11:07:54.558Z,25.57
2017-07-24T11:10:24.654Z,37.80
2017-07-24T11:12:54.791Z,34.37
2017-07-24T11:15:24.892Z,25.93
2017-07-24T11:17:56.428Z,22.90
2017-07-24T11:20:27.184Z,30.70
2017-07-24T11:22:57.397Z,44.73
2017-07-24T11:25:27.526Z,34.47
2017-07-24T11:28:28.286Z,37.10
2017-07-24T11:30:58.369Z,25.17
2017-07-24T11:33:28.591Z,33.73
2017-07-24T11:35:58.691Z,29.27
2017-07-24T11:38:29.648Z,24.23
2017-07-24T11:40:59.766Z,26.50
2017-07-24T11:43:29.882Z,35.40
2017-07-24T11:45:59.913Z,40.97
2017-07-24T11:48:30.016Z,32.30
2017-07-24T11:51:00.135Z,35.00
2017-07-24T11:53:30.254Z,34.50
2017-07-24T11:56:00.473Z,36.67
2017-07-24T11:58:30.605Z,40.27
2017-07-24T12:01:00.710Z,27.80
2017-07-24T12:03:30.828Z,31.67
2017-07-24T12:06:01.055Z,29.00
2017-07-24T12:08:31.167Z,28.50
2017-07-24T12:11:31.398Z,29.63
2017-07-24T12:14:01.510Z,34.77
2017-07-24T12:16:31.536Z,40.10
2017-07-24T12:19:01.996Z,40.63
2017-07-24T12:21:32.990Z,33.83
2017-07-24T12:24:03.428Z,37.73
2017-07-24T12:26:33.841Z,31.87
2017-07-24T12:29:04.359Z,39.90
2017-07-24T12:31:34.406Z,35.00
2017-07-24T12:34:05.135Z,38.00
2017-07-24T12:36:35.142Z,50.17
2017-07-24T12:39:05.148Z,48.37
2017-07-24T12:41:37.052Z,45.20
2017-07-24T12:44:07.127Z,43.53
2017-07-24T12:46:37.450Z,41.57
2017-07-24T12:49:07.572Z,34.13
2017-07-24T12:51:37.685Z,39.00
2017-07-24T12:54:08.027Z,34.50
2017-07-24T12:57:08.541Z,33.47
2017-07-24T12:59:38.657Z,38.90
2017-07-24T13:02:09.187Z,37.43
2017-07-24T13:04:39.511Z,40.83
2017-07-24T13:07:09.732Z,40.50
2017-07-24T13:09:39.968Z,50.17
2017-07-24T13:12:10.547Z,36.43
2017-07-24T13:14:51.936Z,34.03
2017-07-24T13:17:24.736Z,30.87
2017-07-24T13:19:55.624Z,34.87
2017-07-24T13:22:26.524Z,34.10
2017-07-24T13:24:57.045Z,42.23
2017-07-24T13:27:27.062Z,38.97
2017-07-24T13:29:57.691Z,42.47
2017-07-24T13:32:27.713Z,42.20
2017-07-24T13:34:57.826Z,44.57
2017-07-24T13:40:03.584Z,45.80
2017-07-24T13:42:36.032Z,53.50
2017-07-24T13:45:10.837Z,41.20
2017-07-24T13:47:42.296Z,51.83
2017-07-24T13:50:12.359Z,41.53
2017-07-24T13:52:42.478Z,51.83
2017-07-24T13:55:12.610Z,36.43
2017-07-24T13:57:42.714Z,38.60
2017-07-24T14:00:12.834Z,40.97
2017-07-24T14:02:42.950Z,36.77
2017-07-24T14:05:13.069Z,31.80
2017-07-24T14:07:43.187Z,43.83
2017-07-24T14:10:16.758Z,36.50
2017-07-24T14:12:48.661Z,41.37
2017-07-24T14:15:19.914Z,37.80
2017-07-24T14:17:50.469Z,35.43
2017-07-24T14:20:20.544Z,43.57
2017-07-24T14:22:52.612Z,32.47
2017-07-24T14:25:23.757Z,27.77
2017-07-24T14:27:55.062Z,39.17
2017-07-24T14:30:28.506Z,43.17
2017-07-24T14:33:01.026Z,29.03
2017-07-24T14:35:32.805Z,32.47
2017-07-24T14:38:29.571Z,35.13
2017-07-24T14:41:00.376Z,36.17
2017-07-24T14:43:33.651Z,34.50
2017-07-24T14:46:06.856Z,44.37
2017-07-24T14:48:38.244Z,37.93
2017-07-24T14:51:10.108Z,37.33
2017-07-24T14:53:40.205Z,33.40
2017-07-24T14:56:10.232Z,33.30
2017-07-24T14:58:40.338Z,35.03
2017-07-24T15:01:10.455Z,34.27
2017-07-24T15:03:40.469Z,31.23
2017-07-24T15:06:10.458Z,24.87
2017-07-24T15:08:41.223Z,34.20
2017-07-24T15:11:12.710Z,31.00
2017-07-24T15:13:44.049Z,43.83
2017-07-24T15:16:14.995Z,45.47
2017-07-24T15:18:58.318Z,27.60
2017-07-24T15:21:28.399Z,33.73
2017-07-24T15:23:58.532Z,30.63
2017-07-24T15:26:28.636Z,32.23
2017-07-24T15:28:58.754Z,30.07
2017-07-24T15:31:29.229Z,28.40
2017-07-24T15:33:59.403Z,30.33
2017-07-24T15:36:29.542Z,38.13
2017-07-24T15:38:59.683Z,46.30
2017-07-24T15:41:29.831Z,46.80
2017-07-24T15:44:00.713Z,51.00
2017-07-24T15:46:30.821Z,33.60
2017-07-24T15:49:00.807Z,29.53
2017-07-24T15:51:33.698Z,36.93
2017-07-24T15:54:04.786Z,37.47
2017-07-24T15:56:35.346Z,37.67
2017-07-24T15:59:07.466Z,36.80
2017-07-24T16:01:37.587Z,32.13
2017-07-24T16:04:07.681Z,34.13
2017-07-24T16:06:37.705Z,31.07
2017-07-24T16:09:07.712Z,27.47
2017-07-24T16:11:37.845Z,36.13
2017-07-24T16:14:09.873Z,36.13
2017-07-24T16:16:43.197Z,28.40
2017-07-24T16:19:16.183Z,34.93
2017-07-24T16:21:46.972Z,30.07
2017-07-24T16:24:17.130Z,29.37
2017-07-24T16:26:47.810Z,26.27
2017-07-24T16:29:18.741Z,32.00
2017-07-24T16:31:48.909Z,34.27
2017-07-24T16:34:19.134Z,28.13
2017-07-24T16:36:49.251Z,28.07
2017-07-24T16:39:21.386Z,21.10
2017-07-24T16:41:52.443Z,25.40
2017-07-24T16:44:23.526Z,32.00
2017-07-24T16:46:54.963Z,25.30
2017-07-24T16:49:25.169Z,25.47
2017-07-24T16:51:55.283Z,30.57
2017-07-24T16:55:06.438Z,34.90
2017-07-24T16:57:38.947Z,42.47
2017-07-24T17:00:12.675Z,34.53
2017-07-24T17:02:45.135Z,29.07
2017-07-24T17:05:16.309Z,33.60
2017-07-24T17:07:46.952Z,33.50
2017-07-24T17:10:22.079Z,25.90
2017-07-24T17:12:52.584Z,37.60
2017-07-24T17:15:23.488Z,26.53
2017-07-24T17:17:53.711Z,37.23
2017-07-24T17:20:23.730Z,33.13
2017-07-24T17:22:53.949Z,34.17
2017-07-24T17:25:24.743Z,25.67
2017-07-24T17:27:55.357Z,33.23
2017-07-24T17:30:25.433Z,26.57
2017-07-24T17:32:55.648Z,30.07
2017-07-24T17:35:25.662Z,30.90
2017-07-24T17:37:55.780Z,38.93
2017-07-24T17:40:25.797Z,26.20
2017-07-24T17:42:55.813Z,34.70
2017-07-24T17:45:25.931Z,31.73
2017-07-24T17:47:55.947Z,36.77
2017-07-24T17:50:26.066Z,36.90
2017-07-24T17:52:56.388Z,33.50
2017-07-24T17:55:26.507Z,23.57
2017-07-24T17:57:56.827Z,23.50
2017-07-24T18:00:26.948Z,30.70
2017-07-24T18:02:58.304Z,26.57
2017-07-24T18:05:28.412Z,26.70
2017-07-24T18:08:01.483Z,36.03
2017-07-24T18:13:53.961Z,31.17
2017-07-24T18:16:28.203Z,41.50
2017-07-24T18:19:30.601Z,24.50
2017-07-24T18:22:01.253Z,23.50
2017-07-24T18:25:15.640Z,24.83
2017-07-24T18:27:45.858Z,31.10
2017-07-24T18:30:18.922Z,35.77
2017-07-24T18:32:50.563Z,33.23
2017-07-24T18:35:23.394Z,33.07
2017-07-24T18:37:54.068Z,27.60
2017-07-24T18:40:25.155Z,40.10
2017-07-24T18:42:55.168Z,34.63
2017-07-24T18:45:25.291Z,34.27
2017-07-24T18:47:59.246Z,39.13
2017-07-24T18:50:32.040Z,39.20
2017-07-24T18:53:03.408Z,29.70
2017-07-24T18:56:09.792Z,33.70
2017-07-24T18:58:39.807Z,37.33
2017-07-24T19:01:10.032Z,42.20
2017-07-24T19:03:39.874Z,34.87
2017-07-24T19:06:09.957Z,28.57
2017-07-24T19:08:39.973Z,36.43
2017-07-24T19:11:39.071Z,41.47
2017-07-24T19:14:09.188Z,36.10
2017-07-24T19:17:11.813Z,27.97
2017-07-24T19:19:43.575Z,27.07
2017-07-24T19:22:19.583Z,27.80
2017-07-24T19:24:54.380Z,41.70
2017-07-24T19:27:24.633Z,36.20
2017-07-24T19:29:54.751Z,38.50
2017-07-24T19:32:55.282Z,27.73
2017-07-24T19:35:25.297Z,31.60
2017-07-24T19:37:55.516Z,27.40
2017-07-24T19:40:25.536Z,24.07
2017-07-24T19:43:05.787Z,24.90
2017-07-24T19:45:36.009Z,27.80
2017-07-24T19:48:06.947Z,29.27
2017-07-24T19:51:07.279Z,32.07
2017-07-24T19:53:37.392Z,29.93
2017-07-24T19:56:08.335Z,30.10
2017-07-24T19:58:39.020Z,36.13
2017-07-24T20:01:13.745Z,42.87
2017-07-24T20:03:45.284Z,41.73
2017-07-24T20:06:45.564Z,41.83
2017-07-24T20:09:16.304Z,51.03
2017-07-24T20:11:56.562Z,48.03
2017-07-24T20:14:26.575Z,45.40
2017-07-24T20:16:56.792Z,43.23
2017-07-24T20:19:26.809Z,54.80
2017-07-24T20:22:21.190Z,38.57
2017-07-24T20:24:51.100Z,39.70
2017-07-24T20:27:21.216Z,34.67
2017-07-24T20:29:56.639Z,33.80
2017-07-24T20:32:29.358Z,33.50
2017-07-24T20:35:03.489Z,27.97
2017-07-24T20:37:34.524Z,35.13
2017-07-24T20:40:04.505Z,41.40
2017-07-24T20:42:34.630Z,35.00
2017-07-24T20:45:04.747Z,45.93
2017-07-24T20:47:34.866Z,49.63
2017-07-24T20:50:04.986Z,42.03
2017-07-24T20:52:59.370Z,38.03
2017-07-24T20:55:30.340Z,57.40
2017-07-24T20:58:14.767Z,77.03
2017-07-24T21:00:45.243Z,49.13
2017-07-24T21:03:15.307Z,37.43
2017-07-24T21:05:45.422Z,31.97
2017-07-24T21:15:27.232Z,33.77
2017-07-24T21:17:59.868Z,36.47
2017-07-24T21:20:31.531Z,37.87
2017-07-24T21:23:02.574Z,37.63
2017-07-24T21:25:34.180Z,38.20
2017-07-24T21:28:08.866Z,43.63
2017-07-24T21:30:51.059Z,51.07
2017-07-24T21:33:21.438Z,51.10
2017-07-24T21:35:52.279Z,35.83
2017-07-24T21:38:25.856Z,41.50
2017-07-24T21:41:26.005Z,58.53
2017-07-24T21:43:56.110Z,53.23
2017-07-24T21:46:26.226Z,45.53
2017-07-24T21:48:56.448Z,45.53
2017-07-24T21:51:26.463Z,56.40
2017-07-24T21:53:56.685Z,45.03
2017-07-24T21:56:26.601Z,52.37
2017-07-24T21:58:56.819Z,50.40
2017-07-24T22:01:26.836Z,45.13
2017-07-24T22:03:57.893Z,49.77
2017-07-24T22:06:27.997Z,44.53
2017-07-24T22:09:17.471Z,44.67
2017-07-24T22:11:47.584Z,48.83
2017-07-24T22:14:17.702Z,35.60
2017-07-24T22:16:47.719Z,40.23
2017-07-24T22:19:17.729Z,46.03
2017-07-24T22:21:47.749Z,39.37
2017-07-24T22:24:17.969Z,41.37
2017-07-24T22:26:50.783Z,41.43
2017-07-24T22:29:20.869Z,42.63
2017-07-24T22:31:50.987Z,50.13
2017-07-24T22:34:21.103Z,45.83
2017-07-24T22:36:51.121Z,40.47
2017-07-24T22:39:21.445Z,41.03
2017-07-24T22:41:51.357Z,39.20
2017-07-24T22:44:31.511Z,38.90
2017-07-24T22:47:01.754Z,35.40
2017-07-24T22:49:31.957Z,44.50
2017-07-24T22:52:01.968Z,48.80
2017-07-24T22:54:32.087Z,55.30
2017-07-24T22:57:02.412Z,38.53
2017-07-24T22:59:32.530Z,42.50
2017-07-24T23:02:02.651Z,43.43
2017-07-24T23:04:32.663Z,36.90
2017-07-24T23:07:02.786Z,47.20
2017-07-24T23:09:33.102Z,41.77
2017-07-24T23:12:03.220Z,44.67
2017-07-24T23:14:33.338Z,39.60
2017-07-24T23:17:03.250Z,43.20
2017-07-24T23:19:33.269Z,47.53
2017-07-24T23:22:03.183Z,44.03
2017-07-24T23:24:33.307Z,45.67
2017-07-24T23:27:03.418Z,37.47
2017-07-24T23:29:34.667Z,46.90
2017-07-24T23:32:04.782Z,46.47
2017-07-24T23:34:45.040Z,36.27
2017-07-24T23:37:15.158Z,45.20
2017-07-24T23:40:10.568Z,53.57
2017-07-24T23:42:40.587Z,37.20
2017-07-24T23:45:10.700Z,49.33
2017-07-24T23:47:40.715Z,30.87
2017-07-24T23:50:10.832Z,40.30
2017-07-24T23:52:40.859Z,32.47
2017-07-24T23:55:11.991Z,46.33
2017-07-24T23:57:42.110Z,35.37
